Time;durP1;ratioP1;P1;durP2;ratioP2;P2;SDS_P1;SDS_P2;PMS_P1;PMS_P2;Temp;Humidity;BMP_temperature;BMP_pressure;BME280_temperature;BME280_humidity;BME280_pressure;Samples;Min_cycle;Max_cycle;Signal;HPM_P1;HPM_P2
2022/11/21 00:01:19;;;;;;;;;;;;;;;;;;5083025;28;862;-77
2022/11/21 00:03:45;;;;;;;;;;;;;;;;;;5083336;28;1432;-78
2022/11/21 00:06:12;;;;;;;;;;;;;;;;;;5084352;28;1401;-78
2022/11/21 00:08:38;;;;;;;;;;;;;;;;;;5080482;28;2207;-77
2022/11/21 00:11:04;;;;;;;;;;;;;;;;;;5083698;28;1949;-78
2022/11/21 00:13:30;;;;;;;;;;;;;;;;;;5082373;28;1292;-78
2022/11/21 00:15:57;;;;;;;;;;;;;;;;;;5083660;28;1068;-78
2022/11/21 00:18:24;;;;;;;;;;;;;;;;;;5082766;28;1531;-78
2022/11/21 00:20:51;;;;;;;;;;;;;;;;;;5081993;28;1391;-78
2022/11/21 00:23:17;;;;;;;;;;;;;;;;;;5082990;28;1321;-78
2022/11/21 00:25:43;;;;;;;;;;;;;;;;;;5082143;28;1166;-78
2022/11/21 00:28:09;;;;;;;;;;;;;;;;;;5082740;28;1088;-78
2022/11/21 00:30:36;;;;;;;;;;;;;;;;;;5082825;28;1910;-78
2022/11/21 00:33:02;;;;;;;;;;;;;;;;;;5081766;28;1423;-78
2022/11/21 00:35:30;;;;;;;;;;;;;;;;;;5081665;28;1302;-78
2022/11/21 00:37:56;;;;;;;;;;;;;;;;;;5082493;28;1099;-78
2022/11/21 00:40:22;;;;;;;;;;;;;;;;;;5081740;28;1210;-78
2022/11/21 00:42:49;;;;;;;;;;;;;;;;;;5080667;28;1381;-77
2022/11/21 00:45:15;;;;;;;;;;;;;;;;;;5082697;28;1114;-78
2022/11/21 00:47:41;;;;;;;;;;;;;;;;;;5081611;28;1438;-78
2022/11/21 00:50:08;;;;;;;;;;;;;;;;;;5081598;28;1950;-78
2022/11/21 00:52:36;;;;;;;;;;;;;;;;;;5081355;28;1341;-78
2022/11/21 00:55:02;;;;;;;;;;;;;;;;;;5082562;28;759;-77
2022/11/21 00:57:28;;;;;;;;;;;;;;;;;;5082066;28;738;-78
2022/11/21 00:59:55;;;;;;;;;;;;;;;;;;5080911;28;1143;-78
2022/11/21 01:02:21;;;;;;;;;;;;;;;;;;5083000;28;1039;-78
2022/11/21 01:04:47;;;;;;;;;;;;;;;;;;5083460;28;1364;-78
2022/11/21 01:07:13;;;;;;;;;;;;;;;;;;5080112;28;1957;-76
2022/11/21 01:09:41;;;;;;;;;;;;;;;;;;5073855;28;2217;-77
2022/11/21 01:12:07;;;;;;;;;;;;;;;;;;5076097;28;2098;-78
2022/11/21 01:14:34;;;;;;;;;;;;;;;;;;5080508;28;1406;-78
2022/11/21 01:17:00;;;;;;;;;;;;;;;;;;5079462;28;849;-78
2022/11/21 01:19:26;;;;;;;;;;;;;;;;;;5078591;28;1222;-78
2022/11/21 01:21:53;;;;;;;;;;;;;;;;;;5077725;28;1243;-78
2022/11/21 01:24:19;;;;;;;;;;;;;;;;;;5079938;28;1363;-78
2022/11/21 01:26:47;;;;;;;;;;;;;;;;;;5079300;28;755;-78
2022/11/21 01:29:14;;;;;;;;;;;;;;;;;;5080433;28;913;-79
2022/11/21 01:31:40;;;;;;;;;;;;;;;;;;5079805;28;1882;-78
2022/11/21 01:34:06;;;;;;;;;;;;;;;;;;5082065;28;1358;-79
2022/11/21 01:36:33;;;;;;;;;;;;;;;;;;5082753;28;834;-78
2022/11/21 01:39:00;;;;;;;;;;;;;;;;;;5081050;28;1039;-78
2022/11/21 01:41:30;;;;;;;;;;;;;;;;;;5080318;28;991;-78
2022/11/21 01:43:57;;;;;;;;;;;;;;;;;;5081284;28;1280;-78
2022/11/21 01:46:24;;;;;;;;;;;;;;;;;;5081386;28;1012;-78
2022/11/21 01:48:51;;;;;;;;;;;;;;;;;;5081792;28;1079;-77
2022/11/21 01:51:18;;;;;;;;;;;;;;;;;;5077200;28;2020;-75
2022/11/21 01:53:46;;;;;;;;;;;;;;;;;;5070846;28;2065;-76
2022/11/21 01:56:12;;;;;;;;;;;;;;;;;;5077454;28;1703;-77
2022/11/21 01:58:38;;;;;;;;;;;;;;;;;;5077411;28;1075;-77
2022/11/21 02:01:06;;;;;;;;;;;;;;;;;;5077032;28;1257;-78
2022/11/21 02:03:33;;;;;;;;;;;;;;;;;;5076285;28;1281;-78
2022/11/21 02:05:59;;;;;;;;;;;;;;;;;;5078532;28;1522;-78
2022/11/21 02:08:25;;;;;;;;;;;;;;;;;;5075620;28;1463;-78
2022/11/21 02:10:54;;;;;;;;;;;;;;;;;;5078120;28;1906;-78
2022/11/21 02:13:21;;;;;;;;;;;;;;;;;;5075864;28;1300;-78
2022/11/21 02:15:47;;;;;;;;;;;;;;;;;;5075733;28;1130;-78
2022/11/21 02:18:15;;;;;;;;;;;;;;;;;;5077487;28;1111;-78
2022/11/21 02:20:41;;;;;;;;;;;;;;;;;;5077305;28;1019;-76
2022/11/21 02:23:09;;;;;;;;;;;;;;;;;;5076801;28;1278;-78
2022/11/21 02:25:37;;;;;;;;;;;;;;;;;;5076922;28;1384;-78
2022/11/21 02:28:05;;;;;;;;;;;;;;;;;;5076533;28;1252;-78
2022/11/21 02:30:32;;;;;;;;;;;;;;;;;;5075585;28;1887;-78
2022/11/21 02:32:58;;;;;;;;;;;;;;;;;;5074481;28;1283;-78
2022/11/21 02:35:25;;;;;;;;;;;;;;;;;;5076897;28;779;-78
2022/11/21 02:37:53;;;;;;;;;;;;;;;;;;5077338;28;838;-78
2022/11/21 02:40:20;;;;;;;;;;;;;;;;;;5077815;28;1060;-78
2022/11/21 02:42:49;;;;;;;;;;;;;;;;;;5075462;28;1280;-77
2022/11/21 02:45:16;;;;;;;;;;;;;;;;;;5077871;28;1086;-78
2022/11/21 02:47:42;;;;;;;;;;;;;;;;;;5077542;28;1047;-78
2022/11/21 02:50:10;;;;;;;;;;;;;;;;;;5075194;28;1108;-78
2022/11/21 02:52:36;;;;;;;;;;;;;;;;;;5074292;28;1981;-77
2022/11/21 02:55:02;;;;;;;;;;;;;;;;;;5076175;28;1157;-78
2022/11/21 02:57:28;;;;;;;;;;;;;;;;;;5075490;28;1101;-78
2022/11/21 02:59:56;;;;;;;;;;;;;;;;;;5078453;28;1140;-78
2022/11/21 03:02:22;;;;;;;;;;;;;;;;;;5081132;28;1109;-78
2022/11/21 03:04:48;;;;;;;;;;;;;;;;;;5081153;28;1691;-78
2022/11/21 03:07:14;;;;;;;;;;;;;;;;;;5080855;28;1252;-78
2022/11/21 03:09:41;;;;;;;;;;;;;;;;;;5077441;28;2302;-78
2022/11/21 03:12:07;;;;;;;;;;;;;;;;;;5079429;28;1979;-78
2022/11/21 03:14:33;;;;;;;;;;;;;;;;;;5080418;28;1296;-78
2022/11/21 03:17:01;;;;;;;;;;;;;;;;;;5080960;28;1503;-78
2022/11/21 03:19:27;;;;;;;;;;;;;;;;;;5081145;28;1117;-78
2022/11/21 03:21:54;;;;;;;;;;;;;;;;;;5080136;28;1291;-78
2022/11/21 03:24:20;;;;;;;;;;;;;;;;;;5080423;28;1414;-78
2022/11/21 03:26:46;;;;;;;;;;;;;;;;;;5079662;28;1229;-78
2022/11/21 03:29:12;;;;;;;;;;;;;;;;;;5080660;28;1059;-76
2022/11/21 03:31:38;;;;;;;;;;;;;;;;;;5077992;28;1909;-78
2022/11/21 03:34:06;;;;;;;;;;;;;;;;;;5080610;28;1414;-78
2022/11/21 03:36:32;;;;;;;;;;;;;;;;;;5083989;28;1110;-78
2022/11/21 03:38:58;;;;;;;;;;;;;;;;;;5084971;28;1044;-78
2022/11/21 03:41:31;;;;;;;;;;;;;;;;;;5074502;28;2139;-78
2022/11/21 03:43:57;;;;;;;;;;;;;;;;;;5084176;28;1482;-78
2022/11/21 03:46:23;;;;;;;;;;;;;;;;;;5083230;28;1048;-78
2022/11/21 03:48:50;;;;;;;;;;;;;;;;;;5081899;28;1183;-78
2022/11/21 03:51:17;;;;;;;;;;;;;;;;;;5089097;28;1944;-76
2022/11/21 03:53:43;;;;;;;;;;;;;;;;;;5088985;28;1294;-78
2022/11/21 03:56:10;;;;;;;;;;;;;;;;;;5091229;28;1063;-78
2022/11/21 03:58:36;;;;;;;;;;;;;;;;;;5082963;28;1478;-78
2022/11/21 04:01:02;;;;;;;;;;;;;;;;;;5082690;28;1534;-78
2022/11/21 04:03:28;;;;;;;;;;;;;;;;;;5079625;28;1285;-77
2022/11/21 04:05:55;;;;;;;;;;;;;;;;;;5080491;28;1195;-78
2022/11/21 04:08:22;;;;;;;;;;;;;;;;;;5082077;28;1055;-78
2022/11/21 04:10:49;;;;;;;;;;;;;;;;;;5081425;28;1914;-78
2022/11/21 04:13:15;;;;;;;;;;;;;;;;;;5080722;28;1302;-78
2022/11/21 04:15:41;;;;;;;;;;;;;;;;;;5081632;28;984;-77
2022/11/21 04:18:07;;;;;;;;;;;;;;;;;;5081384;28;1118;-78
2022/11/21 04:20:34;;;;;;;;;;;;;;;;;;5082070;28;759;-78
2022/11/21 04:23:00;;;;;;;;;;;;;;;;;;5076931;28;2067;-76
2022/11/21 04:25:28;;;;;;;;;;;;;;;;;;5074956;28;1993;-78
2022/11/21 04:27:55;;;;;;;;;;;;;;;;;;5082011;28;1129;-78
2022/11/21 04:30:21;;;;;;;;;;;;;;;;;;5080595;28;1153;-78
2022/11/21 04:32:50;;;;;;;;;;;;;;;;;;5080192;28;1953;-78
2022/11/21 04:35:16;;;;;;;;;;;;;;;;;;5082069;28;1108;-78
2022/11/21 04:37:42;;;;;;;;;;;;;;;;;;5082979;28;869;-78
2022/11/21 04:40:09;;;;;;;;;;;;;;;;;;5083926;28;1056;-78
2022/11/21 04:42:37;;;;;;;;;;;;;;;;;;5082609;28;1325;-78
2022/11/21 04:45:03;;;;;;;;;;;;;;;;;;5083575;28;1124;-78
2022/11/21 04:47:29;;;;;;;;;;;;;;;;;;5083399;28;1127;-78
2022/11/21 04:49:56;;;;;;;;;;;;;;;;;;5082424;28;1508;-78
2022/11/21 04:52:23;;;;;;;;;;;;;;;;;;5082354;28;2172;-78
2022/11/21 04:54:49;;;;;;;;;;;;;;;;;;5082983;28;1379;-78
2022/11/21 04:57:15;;;;;;;;;;;;;;;;;;5081174;28;1124;-78
2022/11/21 04:59:43;;;;;;;;;;;;;;;;;;5081999;28;1199;-78
2022/11/21 05:02:10;;;;;;;;;;;;;;;;;;5080340;28;864;-78
2022/11/21 05:04:36;;;;;;;;;;;;;;;;;;5083225;28;1292;-78
2022/11/21 05:07:02;;;;;;;;;;;;;;;;;;5082873;28;1124;-82
2022/11/21 05:09:28;;;;;;;;;;;;;;;;;;5082405;28;1324;-82
2022/11/21 05:14:39;;;;;;;;;;;;;;;;;;5083576;28;1471;-79
2022/11/21 05:17:06;;;;;;;;;;;;;;;;;;5070635;28;1453;-79
2022/11/21 05:19:32;;;;;;;;;;;;;;;;;;5073669;28;1402;-80
2022/11/21 05:21:59;;;;;;;;;;;;;;;;;;5072716;28;1300;-81
2022/11/21 05:24:25;;;;;;;;;;;;;;;;;;5070957;28;1475;-81
2022/11/21 05:26:51;;;;;;;;;;;;;;;;;;5075129;28;1730;-80
2022/11/21 05:29:17;;;;;;;;;;;;;;;;;;5076794;28;1162;-79
2022/11/21 05:31:43;;;;;;;;;;;;;;;;;;5076997;28;1992;-80
2022/11/21 05:34:11;;;;;;;;;;;;;;;;;;5077560;28;1400;-81
2022/11/21 05:36:37;;;;;;;;;;;;;;;;;;5073845;28;1357;-81
2022/11/21 05:39:03;;;;;;;;;;;;;;;;;;5068168;28;1410;-80
2022/11/21 05:41:30;;;;;;;;;;;;;;;;;;5076056;28;1389;-80
2022/11/21 05:43:55;;;;;;;;;;;;;;;;;;5069407;28;1387;-82
2022/11/21 05:46:22;;;;;;;;;;;;;;;;;;5076282;28;1134;-82
2022/11/21 05:48:48;;;;;;;;;;;;;;;;;;5077524;28;1204;-80
2022/11/21 05:51:16;;;;;;;;;;;;;;;;;;5077050;28;1918;-84
2022/11/21 05:53:42;;;;;;;;;;;;;;;;;;5076045;28;1410;-82
2022/11/21 05:56:09;;;;;;;;;;;;;;;;;;5077574;28;983;-79
2022/11/21 05:58:35;;;;;;;;;;;;;;;;;;5077102;28;1068;-79
2022/11/21 06:01:01;;;;;;;;;;;;;;;;;;5077003;28;1099;-81
2022/11/21 06:03:29;;;;;;;;;;;;;;;;;;5076115;28;1388;-81
2022/11/21 06:06:02;;;;;;;;;;;;;;;;;;5076176;28;1433;-80
2022/11/21 06:08:30;;;;;;;;;;;;;;;;;;5075730;28;1494;-80
2022/11/21 06:10:57;;;;;;;;;;;;;;;;;;5076330;28;1104;-81
2022/11/21 06:13:23;;;;;;;;;;;;;;;;;;5074837;28;2000;-81
2022/11/21 06:15:50;;;;;;;;;;;;;;;;;;5076993;28;1171;-81
2022/11/21 06:18:16;;;;;;;;;;;;;;;;;;5075851;28;1153;-80
2022/11/21 06:20:43;;;;;;;;;;;;;;;;;;5075625;28;1123;-80
2022/11/21 06:23:09;;;;;;;;;;;;;;;;;;5072553;28;1766;-81
2022/11/21 06:25:36;;;;;;;;;;;;;;;;;;5078216;28;1412;-81
2022/11/21 06:28:03;;;;;;;;;;;;;;;;;;5075996;28;933;-81
2022/11/21 06:30:29;;;;;;;;;;;;;;;;;;5074743;28;809;-82
2022/11/21 06:32:55;;;;;;;;;;;;;;;;;;5069915;28;1979;-82
2022/11/21 06:35:21;;;;;;;;;;;;;;;;;;5055386;28;1416;-82
2022/11/21 06:37:48;;;;;;;;;;;;;;;;;;5069725;28;1099;-82
2022/11/21 06:40:14;;;;;;;;;;;;;;;;;;5063799;28;1361;-83
2022/11/21 06:42:42;;;;;;;;;;;;;;;;;;5069992;28;1455;-82
2022/11/21 06:45:08;;;;;;;;;;;;;;;;;;5075157;28;1246;-83
2022/11/21 06:47:34;;;;;;;;;;;;;;;;;;5074353;28;1218;-82
2022/11/21 06:50:00;;;;;;;;;;;;;;;;;;5076118;28;1442;-82
2022/11/21 06:52:27;;;;;;;;;;;;;;;;;;5080401;28;1949;-79
2022/11/21 06:54:53;;;;;;;;;;;;;;;;;;5074496;28;1819;-82
2022/11/21 06:57:19;;;;;;;;;;;;;;;;;;5078245;28;1449;-83
2022/11/21 06:59:47;;;;;;;;;;;;;;;;;;5071943;28;1390;-81
2022/11/21 07:02:13;;;;;;;;;;;;;;;;;;5073695;28;1100;-82
2022/11/21 07:04:39;;;;;;;;;;;;;;;;;;5070692;28;1325;-82
2022/11/21 07:07:05;;;;;;;;;;;;;;;;;;5075372;28;914;-82
2022/11/21 07:09:32;;;;;;;;;;;;;;;;;;5075193;28;1013;-80
2022/11/21 07:13:20;;;;;;;;;;;;;;;;;;5073956;28;1906;-80
2022/11/21 07:14:45;;;;;;;;;;;;;;;;;;5069100;28;1437;-80
2022/11/21 07:17:11;;;;;;;;;;;;;;;;;;5078724;28;1338;-80
2022/11/21 07:19:38;;;;;;;;;;;;;;;;;;5071015;28;1380;-82
2022/11/21 07:22:04;;;;;;;;;;;;;;;;;;5074725;28;1224;-82
2022/11/21 07:24:30;;;;;;;;;;;;;;;;;;5076414;28;1280;-81
2022/11/21 07:26:56;;;;;;;;;;;;;;;;;;5078054;28;1319;-82
2022/11/21 07:29:22;;;;;;;;;;;;;;;;;;5083080;28;1173;-82
2022/11/21 07:31:50;;;;;;;;;;;;;;;;;;5077818;28;1971;-83
2022/11/21 07:34:16;;;;;;;;;;;;;;;;;;5080170;28;1283;-83
2022/11/21 07:36:42;;;;;;;;;;;;;;;;;;5077573;28;1067;-81
2022/11/21 07:39:08;;;;;;;;;;;;;;;;;;5068277;28;1286;-85
2022/11/21 07:41:35;;;;;;;;;;;;;;;;;;5061759;28;1501;-83
2022/11/21 07:44:01;;;;;;;;;;;;;;;;;;5070011;28;1479;-83
2022/11/21 07:46:27;;;;;;;;;;;;;;;;;;5070603;28;1685;-83
2022/11/21 07:48:55;;;;;;;;;;;;;;;;;;5076961;28;1643;-81
2022/11/21 07:51:21;;;;;;;;;;;;;;;;;;5076378;28;1404;-83
2022/11/21 07:53:47;;;;;;;;;;;;;;;;;;5086180;28;1950;-82
2022/11/21 07:56:13;;;;;;;;;;;;;;;;;;5076269;28;1398;-84
2022/11/21 07:58:40;;;;;;;;;;;;;;;;;;5078646;28;1044;-84
2022/11/21 08:01:07;;;;;;;;;;;;;;;;;;5080243;28;1147;-83
2022/11/21 08:03:33;;;;;;;;;;;;;;;;;;5081703;28;1529;-81
2022/11/21 08:06:02;;;;;;;;;;;;;;;;;;5092665;28;1283;-82
2022/11/21 08:08:29;;;;;;;;;;;;;;;;;;5088447;28;1125;-84
2022/11/21 08:10:55;;;;;;;;;;;;;;;;;;5088921;28;1138;-83
2022/11/21 08:13:21;;;;;;;;;;;;;;;;;;5076477;28;1875;-81
2022/11/21 08:15:48;;;;;;;;;;;;;;;;;;5080031;28;1189;-82
2022/11/21 08:18:14;;;;;;;;;;;;;;;;;;5068707;28;1469;-81
2022/11/21 08:20:41;;;;;;;;;;;;;;;;;;5074834;28;1674;-80
2022/11/21 08:23:09;;;;;;;;;;;;;;;;;;5065369;28;1532;-82
2022/11/21 08:25:36;;;;;;;;;;;;;;;;;;5075422;28;1672;-82
2022/11/21 08:28:02;;;;;;;;;;;;;;;;;;5078151;28;1507;-80
2022/11/21 08:30:29;;;;;;;;;;;;;;;;;;5063228;28;1688;-82
2022/11/21 08:32:56;;;;;;;;;;;;;;;;;;5064706;28;1971;-81
2022/11/21 08:35:23;;;;;;;;;;;;;;;;;;5072015;28;1471;-82
2022/11/21 08:37:49;;;;;;;;;;;;;;;;;;5068025;28;1439;-83
2022/11/21 08:40:17;;;;;;;;;;;;;;;;;;5077598;28;1209;-81
2022/11/21 08:42:43;;;;;;;;;;;;;;;;;;5076216;28;1386;-83
2022/11/21 08:45:10;;;;;;;;;;;;;;;;;;5072890;28;1953;-82
2022/11/21 08:47:36;;;;;;;;;;;;;;;;;;5075599;28;1416;-80
2022/11/21 08:50:02;;;;;;;;;;;;;;;;;;5067716;28;1730;-82
2022/11/21 08:52:28;;;;;;;;;;;;;;;;;;5077048;28;1962;-82
2022/11/21 08:54:55;;;;;;;;;;;;;;;;;;5067617;28;1455;-84
2022/11/21 08:57:22;;;;;;;;;;;;;;;;;;5060188;28;1385;-84
2022/11/21 08:59:49;;;;;;;;;;;;;;;;;;5073874;28;1177;-83
2022/11/21 09:02:15;;;;;;;;;;;;;;;;;;5073408;28;1560;-84
2022/11/21 09:04:41;;;;;;;;;;;;;;;;;;5073881;28;1575;-84
2022/11/21 09:07:07;;;;;;;;;;;;;;;;;;5073269;28;1444;-85
2022/11/21 09:09:33;;;;;;;;;;;;;;;;;;5068274;28;1138;-84
2022/11/21 09:12:00;;;;;;;;;;;;;;;;;;5074792;28;1134;-81
2022/11/21 09:19:56;;;;;;;;;;;;;;;;;;5067634;28;1469;-82
2022/11/21 09:22:23;;;;;;;;;;;;;;;;;;5078043;28;1162;-83
2022/11/21 09:24:49;;;;;;;;;;;;;;;;;;5085741;28;1992;-80
2022/11/21 09:27:16;;;;;;;;;;;;;;;;;;5087440;28;1786;-82
2022/11/21 09:29:43;;;;;;;;;;;;;;;;;;5071474;28;1206;-82
2022/11/21 09:32:09;;;;;;;;;;;;;;;;;;5074025;28;1505;-82
2022/11/21 09:34:36;;;;;;;;;;;;;;;;;;5067371;28;1913;-82
2022/11/21 09:37:02;;;;;;;;;;;;;;;;;;5075057;28;1158;-83
2022/11/21 09:39:28;;;;;;;;;;;;;;;;;;5071350;28;1071;-82
2022/11/21 09:41:58;;;;;;;;;;;;;;;;;;5075642;28;1436;-83
2022/11/21 09:44:40;;;;;;;;;;;;;;;;;;5071553;28;1438;-84
2022/11/21 09:47:17;;;;;;;;;;;;;;;;;;5076565;28;1334;-83
2022/11/21 09:49:43;;;;;;;;;;;;;;;;;;5082294;28;975;-83
2022/11/21 09:52:10;;;;;;;;;;;;;;;;;;5081951;28;1123;-82
2022/11/21 09:54:36;;;;;;;;;;;;;;;;;;5034029;28;1031228;-82
2022/11/21 09:57:02;;;;;;;;;;;;;;;;;;5065890;28;1370;-82
2022/11/21 09:59:30;;;;;;;;;;;;;;;;;;5075499;28;1031;-82
2022/11/21 10:01:56;;;;;;;;;;;;;;;;;;5076228;28;1432;-81
2022/11/21 10:04:25;;;;;;;;;;;;;;;;;;5078400;28;1306;-81
2022/11/21 10:06:53;;;;;;;;;;;;;;;;;;5077601;28;817;-82
2022/11/21 10:09:23;;;;;;;;;;;;;;;;;;5073089;28;1507;-81
2022/11/21 10:14:39;;;;;;;;;;;;;;;;;;5071211;28;1983;-81
2022/11/21 10:17:08;;;;;;;;;;;;;;;;;;5072105;28;1365;-83
2022/11/21 10:19:39;;;;;;;;;;;;;;;;;;5073115;28;1310;-82
2022/11/21 10:22:08;;;;;;;;;;;;;;;;;;5070470;28;1481;-82
2022/11/21 10:24:38;;;;;;;;;;;;;;;;;;5064291;28;1664;-81
2022/11/21 10:27:06;;;;;;;;;;;;;;;;;;5073947;28;1244;-81
2022/11/21 10:29:34;;;;;;;;;;;;;;;;;;5075152;28;912;-81
2022/11/21 10:32:02;;;;;;;;;;;;;;;;;;5072931;28;1343;-81
2022/11/21 10:34:29;;;;;;;;;;;;;;;;;;5074640;28;1891;-81
2022/11/21 10:36:57;;;;;;;;;;;;;;;;;;5074204;28;1207;-83
2022/11/21 10:39:25;;;;;;;;;;;;;;;;;;5072309;28;1580;-82
2022/11/21 10:41:51;;;;;;;;;;;;;;;;;;5076092;28;1407;-81
2022/11/21 10:47:11;;;;;;;;;;;;;;;;;;5060820;28;995;-81
2022/11/21 10:49:38;;;;;;;;;;;;;;;;;;5065263;28;1131;-82
2022/11/21 10:52:05;;;;;;;;;;;;;;;;;;5069195;28;1542;-83
2022/11/21 10:54:35;;;;;;;;;;;;;;;;;;5064570;28;1993;-82
2022/11/21 10:57:02;;;;;;;;;;;;;;;;;;5073306;28;1594;-81
2022/11/21 10:59:29;;;;;;;;;;;;;;;;;;5074935;28;1342;-82
2022/11/21 11:01:56;;;;;;;;;;;;;;;;;;5076003;28;1453;-81
2022/11/21 11:04:22;;;;;;;;;;;;;;;;;;5067316;28;1412;-82
2022/11/21 11:06:49;;;;;;;;;;;;;;;;;;5071545;28;1509;-81
2022/11/21 11:09:28;;;;;;;;;;;;;;;;;;5095533;22;4179;-78
2022/11/21 11:11:54;;;;;;;;;;;;;;;;;;5071937;28;1077;-79
2022/11/21 11:14:31;;;;;;;;;;;;;;;;;;5073057;28;1898;-78
2022/11/21 11:16:57;;;;;;;;;;;;;;;;;;5069930;28;1485;-78
2022/11/21 11:19:24;;;;;;;;;;;;;;;;;;5089809;28;1454;-78
2022/11/21 11:21:50;;;;;;;;;;;;;;;;;;5077444;28;1406;-78
2022/11/21 11:24:23;;;;;;;;;;;;;;;;;;5074146;28;1467;-78
2022/11/21 11:26:51;;;;;;;;;;;;;;;;;;5074641;28;1433;-78
2022/11/21 11:29:18;;;;;;;;;;;;;;;;;;5073064;28;1382;-78
2022/11/21 11:31:45;;;;;;;;;;;;;;;;;;5073695;28;1189;-77
2022/11/21 11:34:12;;;;;;;;;;;;;;;;;;5073693;28;1975;-77
2022/11/21 11:36:38;;;;;;;;;;;;;;;;;;5073706;28;1433;-77
2022/11/21 11:39:09;;;;;;;;;;;;;;;;;;5073873;28;1375;-78
2022/11/21 11:50:14;;;;;;;;;;;;;;;;;;5057455;28;992;-78
2022/11/21 11:52:43;;;;;;;;;;;;;;;;;;5066020;28;1420;-77
2022/11/21 11:55:13;;;;;;;;;;;;;;;;;;5074468;28;1977;-77
2022/11/21 11:57:40;;;;;;;;;;;;;;;;;;5073478;28;1482;-77
2022/11/21 12:00:13;;;;;;;;;;;;;;;;;;5074509;28;1130;-77
2022/11/21 12:02:42;;;;;;;;;;;;;;;;;;5073244;28;1409;-79
2022/11/21 12:05:09;;;;;;;;;;;;;;;;;;5076017;28;1249;-78
2022/11/21 12:07:35;;;;;;;;;;;;;;;;;;5074632;28;1533;-77
2022/11/21 12:10:04;;;;;;;;;;;;;;;;;;5072601;28;1237;-78
2022/11/21 12:12:32;;;;;;;;;;;;;;;;;;5072707;28;1259;-78
2022/11/21 12:17:48;;;;;;;;;;;;;;;;;;5075932;28;1498;-79
2022/11/21 12:20:16;;;;;;;;;;;;;;;;;;5080816;28;1279;-79
2022/11/21 12:22:42;;;;;;;;;;;;;;;;;;5074643;28;1267;-79
2022/11/21 12:25:10;;;;;;;;;;;;;;;;;;5076353;28;881;-78
2022/11/21 12:27:36;;;;;;;;;;;;;;;;;;5074823;28;1381;-80
2022/11/21 12:30:14;;;;;;;;;;;;;;;;;;5076249;28;1084;-79
2022/11/21 12:32:45;;;;;;;;;;;;;;;;;;5075298;28;921;-78
2022/11/21 12:35:18;;;;;;;;;;;;;;;;;;5074338;28;1938;-78
2022/11/21 12:37:45;;;;;;;;;;;;;;;;;;5074334;28;1428;-79
2022/11/21 12:40:16;;;;;;;;;;;;;;;;;;5076506;28;1418;-79
2022/11/21 12:42:49;;;;;;;;;;;;;;;;;;5076212;28;1237;-78
2022/11/21 12:45:33;;;;;;;;;;;;;;;;;;5075667;28;1071;-78
2022/11/21 12:56:36;;;;;;;;;;;;;;;;;;5070771;28;1267;-79
2022/11/21 12:59:03;;;;;;;;;;;;;;;;;;5074337;28;1406;-78
2022/11/21 13:01:30;;;;;;;;;;;;;;;;;;5074619;28;951;-78
2022/11/21 13:03:58;;;;;;;;;;;;;;;;;;5073547;28;1143;-78
2022/11/21 13:06:26;;;;;;;;;;;;;;;;;;5075549;28;1059;-79
2022/11/21 13:08:52;;;;;;;;;;;;;;;;;;5073015;28;1462;-76
2022/11/21 13:14:10;;;;;;;;;;;;;;;;;;5083587;28;1898;-77
2022/11/21 13:16:43;;;;;;;;;;;;;;;;;;5083070;28;1075;-77
2022/11/21 13:19:12;;;;;;;;;;;;;;;;;;5076217;28;1688;-78
2022/11/21 13:21:43;;;;;;;;;;;;;;;;;;5077602;28;1151;-78
2022/11/21 13:24:10;;;;;;;;;;;;;;;;;;5074735;28;1095;-78
2022/11/21 13:26:47;;;;;;;;;;;;;;;;;;5077995;28;1040;-79
2022/11/21 13:29:13;;;;;;;;;;;;;;;;;;5083438;28;1626;-77
2022/11/21 13:31:40;;;;;;;;;;;;;;;;;;5082813;28;1627;-76
2022/11/21 13:34:10;;;;;;;;;;;;;;;;;;5076405;28;1918;-80
2022/11/21 13:36:41;;;;;;;;;;;;;;;;;;5071822;28;1448;-78
2022/11/21 13:39:32;;;;;;;;;;;;;;;;;;5073620;28;1475;-78
2022/11/21 13:44:44;;;;;;;;;;;;;;;;;;5073208;28;1454;-77
2022/11/21 13:47:12;;;;;;;;;;;;;;;;;;5074256;28;1138;-78
2022/11/21 13:49:39;;;;;;;;;;;;;;;;;;5069571;28;1483;-77
2022/11/21 13:52:05;;;;;;;;;;;;;;;;;;5067570;28;1370;-78
2022/11/21 13:54:42;;;;;;;;;;;;;;;;;;5070939;28;1910;-79
2022/11/21 13:57:14;;;;;;;;;;;;;;;;;;5071076;28;1540;-78
2022/11/21 13:59:44;;;;;;;;;;;;;;;;;;5071823;28;1402;-79
2022/11/21 14:02:34;;;;;;;;;;;;;;;;;;5073017;28;1101;-79
2022/11/21 14:05:03;;;;;;;;;;;;;;;;;;5042566;28;1400;-78
2022/11/21 14:07:30;;;;;;;;;;;;;;;;;;5057017;28;1280;-77
2022/11/21 14:09:57;;;;;;;;;;;;;;;;;;5053080;28;1080;-78
2022/11/21 14:12:27;;;;;;;;;;;;;;;;;;5065761;28;1536;-78
2022/11/21 14:14:54;;;;;;;;;;;;;;;;;;5087919;28;1949;-78
2022/11/21 14:17:35;;;;;;;;;;;;;;;;;;5075869;28;1146;-78
2022/11/21 14:20:07;;;;;;;;;;;;;;;;;;5074653;28;794;-78
2022/11/21 14:22:35;;;;;;;;;;;;;;;;;;5077583;28;1099;-78
2022/11/21 14:25:01;;;;;;;;;;;;;;;;;;5073392;28;806;-80
2022/11/21 14:27:29;;;;;;;;;;;;;;;;;;5079309;28;1385;-79
2022/11/21 14:29:56;;;;;;;;;;;;;;;;;;5089434;28;1850;-79
2022/11/21 14:32:26;;;;;;;;;;;;;;;;;;5094558;28;1732;-80
2022/11/21 14:34:52;;;;;;;;;;;;;;;;;;5086881;28;1926;-77
2022/11/21 14:37:18;;;;;;;;;;;;;;;;;;5064151;28;1434;-78
2022/11/21 14:39:46;;;;;;;;;;;;;;;;;;5071467;28;1412;-78
2022/11/21 14:42:13;;;;;;;;;;;;;;;;;;5079376;28;1454;-78
2022/11/21 14:44:41;;;;;;;;;;;;;;;;;;5070992;28;1406;-78
2022/11/21 14:47:12;;;;;;;;;;;;;;;;;;5071943;28;1376;-78
2022/11/21 14:49:38;;;;;;;;;;;;;;;;;;5071824;28;1445;-78
2022/11/21 14:52:08;;;;;;;;;;;;;;;;;;5070540;28;1399;-77
2022/11/21 14:54:35;;;;;;;;;;;;;;;;;;5066898;28;1910;-78
2022/11/21 14:57:01;;;;;;;;;;;;;;;;;;5074724;28;1393;-77
2022/11/21 14:59:29;;;;;;;;;;;;;;;;;;5073649;28;1726;-79
2022/11/21 15:01:57;;;;;;;;;;;;;;;;;;5079445;28;1441;-78
2022/11/21 15:04:28;;;;;;;;;;;;;;;;;;5080884;28;1352;-79
2022/11/21 15:06:54;;;;;;;;;;;;;;;;;;5085423;28;1495;-79
2022/11/21 15:09:20;;;;;;;;;;;;;;;;;;5076859;28;1452;-79
2022/11/21 15:11:48;;;;;;;;;;;;;;;;;;5079595;28;1443;-78
2022/11/21 15:14:17;;;;;;;;;;;;;;;;;;5085874;28;1887;-79
2022/11/21 15:16:43;;;;;;;;;;;;;;;;;;5082109;28;1497;-79
2022/11/21 15:19:11;;;;;;;;;;;;;;;;;;5082017;28;1536;-78
2022/11/21 15:21:37;;;;;;;;;;;;;;;;;;5082478;28;1240;-78
2022/11/21 15:24:15;;;;;;;;;;;;;;;;;;5075489;28;1458;-77
2022/11/21 15:26:41;;;;;;;;;;;;;;;;;;5075936;28;1523;-78
2022/11/21 15:29:16;;;;;;;;;;;;;;;;;;5071603;28;1431;-77
2022/11/21 15:31:43;;;;;;;;;;;;;;;;;;5075937;28;1420;-78
2022/11/21 15:34:10;;;;;;;;;;;;;;;;;;5075652;28;1910;-78
2022/11/21 15:36:37;;;;;;;;;;;;;;;;;;5075819;28;1452;-78
2022/11/21 15:39:05;;;;;;;;;;;;;;;;;;5075341;28;1496;-78
2022/11/21 15:41:32;;;;;;;;;;;;;;;;;;5078706;28;1063;-78
2022/11/21 15:44:13;;;;;;;;;;;;;;;;;;5079169;28;1493;-78
2022/11/21 15:46:41;;;;;;;;;;;;;;;;;;5078893;28;1490;-77
2022/11/21 15:49:09;;;;;;;;;;;;;;;;;;5082888;28;1470;-78
2022/11/21 15:51:37;;;;;;;;;;;;;;;;;;5082328;28;1448;-78
2022/11/21 15:54:03;;;;;;;;;;;;;;;;;;5083031;28;1436;-78
2022/11/21 15:56:29;;;;;;;;;;;;;;;;;;5079576;28;1969;-78
2022/11/21 15:58:55;;;;;;;;;;;;;;;;;;5075763;28;1462;-78
2022/11/21 16:01:22;;;;;;;;;;;;;;;;;;5081350;28;1372;-78
2022/11/21 16:03:49;;;;;;;;;;;;;;;;;;5075507;28;1492;-78
2022/11/21 16:06:15;;;;;;;;;;;;;;;;;;5075168;28;1365;-78
2022/11/21 16:08:43;;;;;;;;;;;;;;;;;;5075991;28;1661;-78
2022/11/21 16:11:11;;;;;;;;;;;;;;;;;;5075319;28;1416;-78
2022/11/21 16:13:37;;;;;;;;;;;;;;;;;;5073568;28;1452;-78
2022/11/21 16:16:04;;;;;;;;;;;;;;;;;;5073829;28;1910;-78
2022/11/21 16:18:30;;;;;;;;;;;;;;;;;;5073176;28;1541;-76
2022/11/21 16:21:06;;;;;;;;;;;;;;;;;;5071799;28;1683;-78
2022/11/21 16:23:32;;;;;;;;;;;;;;;;;;5073329;28;1142;-78
2022/11/21 16:26:00;;;;;;;;;;;;;;;;;;5070459;28;1456;-78
2022/11/21 16:28:26;;;;;;;;;;;;;;;;;;5073086;28;1477;-78
2022/11/21 16:30:52;;;;;;;;;;;;;;;;;;5071290;28;1221;-78
2022/11/21 16:33:19;;;;;;;;;;;;;;;;;;5070037;28;1395;-77
2022/11/21 16:35:45;;;;;;;;;;;;;;;;;;5070829;28;1973;-78
2022/11/21 16:38:11;;;;;;;;;;;;;;;;;;5068921;28;1425;-78
2022/11/21 16:40:38;;;;;;;;;;;;;;;;;;5071317;28;1146;-78
2022/11/21 16:43:09;;;;;;;;;;;;;;;;;;5072484;28;1438;-77
2022/11/21 16:45:35;;;;;;;;;;;;;;;;;;5073755;28;1635;-77
2022/11/21 16:48:01;;;;;;;;;;;;;;;;;;5080150;28;1401;-79
2022/11/21 16:50:27;;;;;;;;;;;;;;;;;;5077171;28;1413;-76
2022/11/21 16:52:53;;;;;;;;;;;;;;;;;;5076060;28;1142;-78
2022/11/21 16:55:20;;;;;;;;;;;;;;;;;;5075952;28;1976;-78
2022/11/21 16:57:46;;;;;;;;;;;;;;;;;;5073447;28;1577;-79
2022/11/21 17:00:14;;;;;;;;;;;;;;;;;;5074979;28;1425;-77
2022/11/21 17:02:40;;;;;;;;;;;;;;;;;;5081509;28;1631;-79
2022/11/21 17:05:07;;;;;;;;;;;;;;;;;;5096236;28;1659;-78
2022/11/21 17:07:33;;;;;;;;;;;;;;;;;;5092262;28;1407;-78
2022/11/21 17:09:59;;;;;;;;;;;;;;;;;;5089034;22;2162;-73
2022/11/21 17:12:26;;;;;;;;;;;;;;;;;;5053847;28;1296;-73
2022/11/21 17:14:52;;;;;;;;;;;;;;;;;;5072743;28;1970;-73
2022/11/21 17:17:19;;;;;;;;;;;;;;;;;;5072290;28;945;-74
2022/11/21 17:19:46;;;;;;;;;;;;;;;;;;5072266;28;1242;-74
2022/11/21 17:22:12;;;;;;;;;;;;;;;;;;5054443;28;1148;-75
2022/11/21 17:24:38;;;;;;;;;;;;;;;;;;5040147;28;1126;-76
2022/11/21 17:27:04;;;;;;;;;;;;;;;;;;5032962;28;870;-75
2022/11/21 17:29:30;;;;;;;;;;;;;;;;;;5034469;28;1294;-75
2022/11/21 17:31:57;;;;;;;;;;;;;;;;;;5049024;28;1530;-76
2022/11/21 17:34:25;;;;;;;;;;;;;;;;;;5025733;28;1451;-76
2022/11/21 17:36:51;;;;;;;;;;;;;;;;;;5000878;28;1973;-76
2022/11/21 17:39:18;;;;;;;;;;;;;;;;;;5008174;28;1376;-75
2022/11/21 17:41:44;;;;;;;;;;;;;;;;;;4985742;28;1542;-73
2022/11/21 17:44:12;;;;;;;;;;;;;;;;;;4988195;28;835;-73